sensor_id;sensor_type;location;lat;lon;timestamp;temperature;humidity
55828;DHT22;41758;51.992;5.890;2022-08-20T00:01:05;27.30;61.10
55828;DHT22;41758;51.992;5.890;2022-08-20T00:03:39;27.30;61.10
55828;DHT22;41758;51.992;5.890;2022-08-20T00:06:17;27.30;61.10
55828;DHT22;41758;51.992;5.890;2022-08-20T00:08:53;27.30;61.10
55828;DHT22;41758;51.992;5.890;2022-08-20T00:11:28;27.30;61.10
55828;DHT22;41758;51.992;5.890;2022-08-20T00:13:59;27.30;61.20
55828;DHT22;41758;51.992;5.890;2022-08-20T00:16:35;27.30;61.10
55828;DHT22;41758;51.992;5.890;2022-08-20T00:19:07;27.30;61.20
55828;DHT22;41758;51.992;5.890;2022-08-20T00:21:33;27.30;61.20
55828;DHT22;41758;51.992;5.890;2022-08-20T00:24:01;27.30;61.20
55828;DHT22;41758;51.992;5.890;2022-08-20T00:26:27;27.30;61.20
55828;DHT22;41758;51.992;5.890;2022-08-20T00:28:53;27.30;61.20
55828;DHT22;41758;51.992;5.890;2022-08-20T00:31:21;27.30;61.20
55828;DHT22;41758;51.992;5.890;2022-08-20T00:33:48;27.30;61.20
55828;DHT22;41758;51.992;5.890;2022-08-20T00:36:14;27.30;61.20
55828;DHT22;41758;51.992;5.890;2022-08-20T00:38:43;27.30;61.20
55828;DHT22;41758;51.992;5.890;2022-08-20T00:41:22;27.30;61.20
55828;DHT22;41758;51.992;5.890;2022-08-20T00:46:36;27.30;61.20
55828;DHT22;41758;51.992;5.890;2022-08-20T00:49:03;27.30;61.10
55828;DHT22;41758;51.992;5.890;2022-08-20T00:51:45;27.30;61.10
55828;DHT22;41758;51.992;5.890;2022-08-20T00:56:51;27.30;61.40
55828;DHT22;41758;51.992;5.890;2022-08-20T00:59:23;27.30;61.70
55828;DHT22;41758;51.992;5.890;2022-08-20T01:01:50;27.30;62.00
55828;DHT22;41758;51.992;5.890;2022-08-20T01:04:16;27.30;62.40
55828;DHT22;41758;51.992;5.890;2022-08-20T01:06:42;27.30;62.70
55828;DHT22;41758;51.992;5.890;2022-08-20T01:09:09;27.30;63.20
55828;DHT22;41758;51.992;5.890;2022-08-20T01:11:36;27.30;63.40
55828;DHT22;41758;51.992;5.890;2022-08-20T01:14:08;27.30;63.60
55828;DHT22;41758;51.992;5.890;2022-08-20T01:16:57;27.30;63.50
55828;DHT22;41758;51.992;5.890;2022-08-20T01:19:32;27.30;63.60
55828;DHT22;41758;51.992;5.890;2022-08-20T01:22:01;27.20;63.90
55828;DHT22;41758;51.992;5.890;2022-08-20T01:24:51;27.10;64.30
55828;DHT22;41758;51.992;5.890;2022-08-20T01:27:20;27.00;64.80
55828;DHT22;41758;51.992;5.890;2022-08-20T01:29:47;27.00;65.10
55828;DHT22;41758;51.992;5.890;2022-08-20T01:32:26;26.90;65.30
55828;DHT22;41758;51.992;5.890;2022-08-20T01:34:55;26.80;65.50
55828;DHT22;41758;51.992;5.890;2022-08-20T01:37:23;26.70;65.60
55828;DHT22;41758;51.992;5.890;2022-08-20T01:39:52;26.60;65.80
55828;DHT22;41758;51.992;5.890;2022-08-20T01:45:17;26.60;65.90
55828;DHT22;41758;51.992;5.890;2022-08-20T01:47:42;26.60;66.00
55828;DHT22;41758;51.992;5.890;2022-08-20T01:50:20;26.60;66.10
55828;DHT22;41758;51.992;5.890;2022-08-20T01:52:56;26.60;66.00
55828;DHT22;41758;51.992;5.890;2022-08-20T01:55:29;26.60;66.00
55828;DHT22;41758;51.992;5.890;2022-08-20T01:57:55;26.60;65.90
55828;DHT22;41758;51.992;5.890;2022-08-20T02:00:25;26.60;65.90
55828;DHT22;41758;51.992;5.890;2022-08-20T02:02:51;26.50;65.80
55828;DHT22;41758;51.992;5.890;2022-08-20T02:05:17;26.50;65.70
55828;DHT22;41758;51.992;5.890;2022-08-20T02:07:43;26.50;65.70
55828;DHT22;41758;51.992;5.890;2022-08-20T02:10:15;26.50;65.60
55828;DHT22;41758;51.992;5.890;2022-08-20T02:12:42;26.50;65.60
55828;DHT22;41758;51.992;5.890;2022-08-20T02:15:11;26.50;65.60
55828;DHT22;41758;51.992;5.890;2022-08-20T02:17:41;26.50;65.40
55828;DHT22;41758;51.992;5.890;2022-08-20T02:20:09;26.40;65.30
55828;DHT22;41758;51.992;5.890;2022-08-20T02:22:47;26.40;65.30
55828;DHT22;41758;51.992;5.890;2022-08-20T02:25:19;26.50;65.20
55828;DHT22;41758;51.992;5.890;2022-08-20T02:27:46;26.40;65.20
55828;DHT22;41758;51.992;5.890;2022-08-20T02:30:21;26.40;65.00
55828;DHT22;41758;51.992;5.890;2022-08-20T02:32:48;26.40;64.90
55828;DHT22;41758;51.992;5.890;2022-08-20T02:35:15;26.40;65.00
55828;DHT22;41758;51.992;5.890;2022-08-20T02:37:54;26.40;65.00
55828;DHT22;41758;51.992;5.890;2022-08-20T02:40:35;26.40;65.00
55828;DHT22;41758;51.992;5.890;2022-08-20T02:43:07;26.40;64.90
55828;DHT22;41758;51.992;5.890;2022-08-20T02:45:36;26.40;64.90
55828;DHT22;41758;51.992;5.890;2022-08-20T02:48:04;26.40;64.80
55828;DHT22;41758;51.992;5.890;2022-08-20T02:50:31;26.40;64.80
55828;DHT22;41758;51.992;5.890;2022-08-20T02:53:17;26.40;64.80
55828;DHT22;41758;51.992;5.890;2022-08-20T02:55:43;26.40;64.80
55828;DHT22;41758;51.992;5.890;2022-08-20T02:58:09;26.40;64.80
55828;DHT22;41758;51.992;5.890;2022-08-20T03:00:36;26.40;64.80
55828;DHT22;41758;51.992;5.890;2022-08-20T03:03:03;26.40;64.70
55828;DHT22;41758;51.992;5.890;2022-08-20T03:05:29;26.40;64.70
55828;DHT22;41758;51.992;5.890;2022-08-20T03:07:55;26.40;64.70
55828;DHT22;41758;51.992;5.890;2022-08-20T03:10:27;26.40;64.60
55828;DHT22;41758;51.992;5.890;2022-08-20T03:12:53;26.40;64.50
55828;DHT22;41758;51.992;5.890;2022-08-20T03:15:21;26.40;64.50
55828;DHT22;41758;51.992;5.890;2022-08-20T03:17:50;26.40;64.60
55828;DHT22;41758;51.992;5.890;2022-08-20T03:20:22;26.40;64.60
55828;DHT22;41758;51.992;5.890;2022-08-20T03:23:12;26.40;64.50
55828;DHT22;41758;51.992;5.890;2022-08-20T03:25:44;26.40;64.50
55828;DHT22;41758;51.992;5.890;2022-08-20T03:28:11;26.40;64.50
55828;DHT22;41758;51.992;5.890;2022-08-20T03:30:38;26.40;64.50
55828;DHT22;41758;51.992;5.890;2022-08-20T03:33:04;26.40;64.40
55828;DHT22;41758;51.992;5.890;2022-08-20T03:35:33;26.40;64.30
55828;DHT22;41758;51.992;5.890;2022-08-20T03:37:59;26.40;64.40
55828;DHT22;41758;51.992;5.890;2022-08-20T03:40:31;26.40;64.40
55828;DHT22;41758;51.992;5.890;2022-08-20T03:42:57;26.30;64.60
55828;DHT22;41758;51.992;5.890;2022-08-20T03:45:25;26.20;64.80
55828;DHT22;41758;51.992;5.890;2022-08-20T03:47:55;26.20;64.80
55828;DHT22;41758;51.992;5.890;2022-08-20T03:50:34;26.20;64.80
55828;DHT22;41758;51.992;5.890;2022-08-20T03:53:11;26.20;64.70
55828;DHT22;41758;51.992;5.890;2022-08-20T03:55:38;26.20;64.80
55828;DHT22;41758;51.992;5.890;2022-08-20T03:58:07;26.10;64.80
55828;DHT22;41758;51.992;5.890;2022-08-20T04:00:43;26.20;64.80
55828;DHT22;41758;51.992;5.890;2022-08-20T04:03:09;26.20;64.80
55828;DHT22;41758;51.992;5.890;2022-08-20T04:05:36;26.20;64.90
55828;DHT22;41758;51.992;5.890;2022-08-20T04:08:11;26.20;64.90
55828;DHT22;41758;51.992;5.890;2022-08-20T04:10:53;26.20;64.90
55828;DHT22;41758;51.992;5.890;2022-08-20T04:13:38;26.20;64.90
55828;DHT22;41758;51.992;5.890;2022-08-20T04:16:03;26.20;64.90
55828;DHT22;41758;51.992;5.890;2022-08-20T04:18:34;26.20;65.00
55828;DHT22;41758;51.992;5.890;2022-08-20T04:21:02;26.20;65.00
55828;DHT22;41758;51.992;5.890;2022-08-20T04:23:29;26.20;65.00
55828;DHT22;41758;51.992;5.890;2022-08-20T04:25:56;26.20;65.00
55828;DHT22;41758;51.992;5.890;2022-08-20T04:28:23;26.20;64.90
55828;DHT22;41758;51.992;5.890;2022-08-20T04:30:52;26.30;64.90
55828;DHT22;41758;51.992;5.890;2022-08-20T04:33:20;26.20;64.80
55828;DHT22;41758;51.992;5.890;2022-08-20T04:35:47;26.30;64.80
55828;DHT22;41758;51.992;5.890;2022-08-20T04:38:17;26.30;64.70
55828;DHT22;41758;51.992;5.890;2022-08-20T04:40:44;26.30;64.70
55828;DHT22;41758;51.992;5.890;2022-08-20T04:43:25;26.30;64.70
55828;DHT22;41758;51.992;5.890;2022-08-20T04:45:52;26.30;64.70
55828;DHT22;41758;51.992;5.890;2022-08-20T04:48:20;26.30;64.70
55828;DHT22;41758;51.992;5.890;2022-08-20T04:50:54;26.30;64.60
55828;DHT22;41758;51.992;5.890;2022-08-20T04:53:22;26.30;64.50
55828;DHT22;41758;51.992;5.890;2022-08-20T04:56:07;26.20;64.40
55828;DHT22;41758;51.992;5.890;2022-08-20T04:58:35;25.90;65.60
55828;DHT22;41758;51.992;5.890;2022-08-20T05:01:07;25.60;68.10
55828;DHT22;41758;51.992;5.890;2022-08-20T05:03:35;25.40;69.20
55828;DHT22;41758;51.992;5.890;2022-08-20T05:06:03;25.20;70.10
55828;DHT22;41758;51.992;5.890;2022-08-20T05:08:30;25.10;70.50
55828;DHT22;41758;51.992;5.890;2022-08-20T05:10:57;25.00;71.20
55828;DHT22;41758;51.992;5.890;2022-08-20T05:13:23;24.90;71.50
55828;DHT22;41758;51.992;5.890;2022-08-20T05:15:49;24.90;71.90
55828;DHT22;41758;51.992;5.890;2022-08-20T05:18:23;24.90;72.30
55828;DHT22;41758;51.992;5.890;2022-08-20T05:20:50;24.80;72.50
55828;DHT22;41758;51.992;5.890;2022-08-20T05:23:18;24.70;72.90
55828;DHT22;41758;51.992;5.890;2022-08-20T05:25:46;24.70;73.10
55828;DHT22;41758;51.992;5.890;2022-08-20T05:28:20;24.70;73.30
55828;DHT22;41758;51.992;5.890;2022-08-20T05:30:47;24.70;73.40
55828;DHT22;41758;51.992;5.890;2022-08-20T05:33:14;24.60;73.60
55828;DHT22;41758;51.992;5.890;2022-08-20T05:35:42;24.70;73.60
55828;DHT22;41758;51.992;5.890;2022-08-20T05:38:10;24.60;73.70
55828;DHT22;41758;51.992;5.890;2022-08-20T05:40:38;24.60;73.80
55828;DHT22;41758;51.992;5.890;2022-08-20T05:43:05;24.60;73.80
55828;DHT22;41758;51.992;5.890;2022-08-20T05:45:32;24.60;73.90
55828;DHT22;41758;51.992;5.890;2022-08-20T05:48:07;24.60;74.00
55828;DHT22;41758;51.992;5.890;2022-08-20T05:50:35;24.60;73.90
55828;DHT22;41758;51.992;5.890;2022-08-20T05:53:00;24.60;73.60
55828;DHT22;41758;51.992;5.890;2022-08-20T05:55:27;24.60;73.50
55828;DHT22;41758;51.992;5.890;2022-08-20T05:58:00;24.60;73.60
55828;DHT22;41758;51.992;5.890;2022-08-20T06:00:27;24.60;73.60
55828;DHT22;41758;51.992;5.890;2022-08-20T06:02:53;24.60;73.70
55828;DHT22;41758;51.992;5.890;2022-08-20T06:05:38;24.60;73.40
55828;DHT22;41758;51.992;5.890;2022-08-20T06:08:05;24.60;73.30
55828;DHT22;41758;51.992;5.890;2022-08-20T06:10:31;24.60;73.20
55828;DHT22;41758;51.992;5.890;2022-08-20T06:12:57;24.60;73.40
55828;DHT22;41758;51.992;5.890;2022-08-20T06:15:23;24.60;73.40
55828;DHT22;41758;51.992;5.890;2022-08-20T06:17:48;24.60;73.60
55828;DHT22;41758;51.992;5.890;2022-08-20T06:20:14;24.60;73.70
55828;DHT22;41758;51.992;5.890;2022-08-20T06:22:40;24.60;73.80
55828;DHT22;41758;51.992;5.890;2022-08-20T06:25:06;24.70;73.90
55828;DHT22;41758;51.992;5.890;2022-08-20T06:27:36;24.60;74.00
55828;DHT22;41758;51.992;5.890;2022-08-20T06:30:02;24.60;73.90
55828;DHT22;41758;51.992;5.890;2022-08-20T06:32:28;24.60;73.60
55828;DHT22;41758;51.992;5.890;2022-08-20T06:34:53;24.60;73.50
55828;DHT22;41758;51.992;5.890;2022-08-20T06:37:25;24.60;73.30
55828;DHT22;41758;51.992;5.890;2022-08-20T06:39:51;24.60;73.20
55828;DHT22;41758;51.992;5.890;2022-08-20T06:42:18;24.60;73.20
55828;DHT22;41758;51.992;5.890;2022-08-20T06:44:45;24.60;73.20
55828;DHT22;41758;51.992;5.890;2022-08-20T06:47:19;24.60;73.20
55828;DHT22;41758;51.992;5.890;2022-08-20T06:49:45;24.60;73.20
55828;DHT22;41758;51.992;5.890;2022-08-20T06:52:12;24.60;73.20
55828;DHT22;41758;51.992;5.890;2022-08-20T06:54:42;24.60;73.20
55828;DHT22;41758;51.992;5.890;2022-08-20T06:57:07;24.60;73.10
55828;DHT22;41758;51.992;5.890;2022-08-20T06:59:33;24.60;72.90
55828;DHT22;41758;51.992;5.890;2022-08-20T07:01:59;24.60;72.80
55828;DHT22;41758;51.992;5.890;2022-08-20T07:04:25;24.60;72.70
55828;DHT22;41758;51.992;5.890;2022-08-20T07:06:55;24.60;72.80
55828;DHT22;41758;51.992;5.890;2022-08-20T07:09:23;24.70;72.90
55828;DHT22;41758;51.992;5.890;2022-08-20T07:11:48;24.60;73.10
55828;DHT22;41758;51.992;5.890;2022-08-20T07:14:20;24.70;73.10
55828;DHT22;41758;51.992;5.890;2022-08-20T07:16:46;24.60;72.70
55828;DHT22;41758;51.992;5.890;2022-08-20T07:19:13;24.60;72.50
55828;DHT22;41758;51.992;5.890;2022-08-20T07:21:42;24.60;72.50
55828;DHT22;41758;51.992;5.890;2022-08-20T07:24:08;24.60;72.30
55828;DHT22;41758;51.992;5.890;2022-08-20T07:26:34;24.60;72.30
55828;DHT22;41758;51.992;5.890;2022-08-20T07:29:00;24.60;72.30
55828;DHT22;41758;51.992;5.890;2022-08-20T07:31:25;24.60;72.40
55828;DHT22;41758;51.992;5.890;2022-08-20T07:34:10;24.60;72.40
55828;DHT22;41758;51.992;5.890;2022-08-20T07:36:36;24.70;72.40
55828;DHT22;41758;51.992;5.890;2022-08-20T07:39:03;24.60;72.40
55828;DHT22;41758;51.992;5.890;2022-08-20T07:41:30;24.70;72.30
55828;DHT22;41758;51.992;5.890;2022-08-20T07:43:56;24.70;72.50
55828;DHT22;41758;51.992;5.890;2022-08-20T07:46:22;24.70;72.50
55828;DHT22;41758;51.992;5.890;2022-08-20T07:48:48;24.70;72.40
55828;DHT22;41758;51.992;5.890;2022-08-20T07:51:17;24.70;72.40
55828;DHT22;41758;51.992;5.890;2022-08-20T07:53:45;24.70;72.30
55828;DHT22;41758;51.992;5.890;2022-08-20T07:56:14;24.80;72.30
55828;DHT22;41758;51.992;5.890;2022-08-20T07:58:43;24.80;72.00
55828;DHT22;41758;51.992;5.890;2022-08-20T08:01:18;24.80;71.80
55828;DHT22;41758;51.992;5.890;2022-08-20T08:03:44;24.80;71.70
55828;DHT22;41758;51.992;5.890;2022-08-20T08:06:10;24.80;71.40
55828;DHT22;41758;51.992;5.890;2022-08-20T08:08:37;24.80;71.40
55828;DHT22;41758;51.992;5.890;2022-08-20T08:11:04;24.70;71.40
55828;DHT22;41758;51.992;5.890;2022-08-20T08:13:34;24.80;71.40
55828;DHT22;41758;51.992;5.890;2022-08-20T08:16:01;24.80;71.30
55828;DHT22;41758;51.992;5.890;2022-08-20T08:18:47;24.80;71.30
55828;DHT22;41758;51.992;5.890;2022-08-20T08:21:15;24.80;71.20
55828;DHT22;41758;51.992;5.890;2022-08-20T08:23:42;24.80;71.00
55828;DHT22;41758;51.992;5.890;2022-08-20T08:26:14;24.80;71.00
55828;DHT22;41758;51.992;5.890;2022-08-20T08:28:41;24.80;70.90
55828;DHT22;41758;51.992;5.890;2022-08-20T08:31:09;24.80;70.80
55828;DHT22;41758;51.992;5.890;2022-08-20T08:33:36;24.80;70.90
55828;DHT22;41758;51.992;5.890;2022-08-20T08:36:07;24.90;70.90
55828;DHT22;41758;51.992;5.890;2022-08-20T08:38:38;24.90;70.70
55828;DHT22;41758;51.992;5.890;2022-08-20T08:41:33;24.80;70.60
55828;DHT22;41758;51.992;5.890;2022-08-20T08:44:13;24.90;70.60
55828;DHT22;41758;51.992;5.890;2022-08-20T08:46:46;24.90;70.70
55828;DHT22;41758;51.992;5.890;2022-08-20T08:49:19;24.90;70.60
55828;DHT22;41758;51.992;5.890;2022-08-20T08:51:49;24.90;70.50
55828;DHT22;41758;51.992;5.890;2022-08-20T08:54:19;24.90;70.70
55828;DHT22;41758;51.992;5.890;2022-08-20T08:56:46;24.90;70.50
55828;DHT22;41758;51.992;5.890;2022-08-20T08:59:11;24.90;70.50
55828;DHT22;41758;51.992;5.890;2022-08-20T09:01:44;24.90;70.50
55828;DHT22;41758;51.992;5.890;2022-08-20T09:04:16;25.00;70.20
55828;DHT22;41758;51.992;5.890;2022-08-20T09:06:43;25.00;70.20
55828;DHT22;41758;51.992;5.890;2022-08-20T09:09:39;25.00;70.30
55828;DHT22;41758;51.992;5.890;2022-08-20T09:12:12;25.00;70.30
55828;DHT22;41758;51.992;5.890;2022-08-20T09:14:38;25.10;70.20
55828;DHT22;41758;51.992;5.890;2022-08-20T09:17:05;25.10;70.00
55828;DHT22;41758;51.992;5.890;2022-08-20T09:19:31;25.10;69.90
55828;DHT22;41758;51.992;5.890;2022-08-20T09:21:56;25.20;69.70
55828;DHT22;41758;51.992;5.890;2022-08-20T09:24:22;25.10;69.60
55828;DHT22;41758;51.992;5.890;2022-08-20T09:26:48;25.20;69.70
55828;DHT22;41758;51.992;5.890;2022-08-20T09:29:14;25.30;69.50
55828;DHT22;41758;51.992;5.890;2022-08-20T09:31:39;25.30;69.30
55828;DHT22;41758;51.992;5.890;2022-08-20T09:34:05;25.30;69.20
55828;DHT22;41758;51.992;5.890;2022-08-20T09:36:31;25.30;69.00
55828;DHT22;41758;51.992;5.890;2022-08-20T09:38:57;25.30;69.00
55828;DHT22;41758;51.992;5.890;2022-08-20T09:41:23;25.40;68.90
55828;DHT22;41758;51.992;5.890;2022-08-20T09:43:48;25.40;68.70
55828;DHT22;41758;51.992;5.890;2022-08-20T09:46:14;25.40;68.50
55828;DHT22;41758;51.992;5.890;2022-08-20T09:48:40;25.40;68.30
55828;DHT22;41758;51.992;5.890;2022-08-20T09:51:05;25.40;68.20
55828;DHT22;41758;51.992;5.890;2022-08-20T09:53:31;25.40;68.00
55828;DHT22;41758;51.992;5.890;2022-08-20T09:55:57;25.30;67.90
55828;DHT22;41758;51.992;5.890;2022-08-20T09:58:36;25.30;68.00
55828;DHT22;41758;51.992;5.890;2022-08-20T10:01:10;25.40;68.00
55828;DHT22;41758;51.992;5.890;2022-08-20T10:03:36;25.30;68.10
55828;DHT22;41758;51.992;5.890;2022-08-20T10:06:02;25.40;68.10
55828;DHT22;41758;51.992;5.890;2022-08-20T10:08:27;25.40;67.10
55828;DHT22;41758;51.992;5.890;2022-08-20T10:10:53;25.50;67.50
55828;DHT22;41758;51.992;5.890;2022-08-20T10:13:19;25.60;67.30
55828;DHT22;41758;51.992;5.890;2022-08-20T10:15:45;25.70;66.70
55828;DHT22;41758;51.992;5.890;2022-08-20T10:18:10;25.80;66.40
55828;DHT22;41758;51.992;5.890;2022-08-20T10:20:36;25.80;66.50
55828;DHT22;41758;51.992;5.890;2022-08-20T10:23:03;25.90;66.50
55828;DHT22;41758;51.992;5.890;2022-08-20T10:25:28;25.90;66.40
55828;DHT22;41758;51.992;5.890;2022-08-20T10:27:54;25.90;65.90
55828;DHT22;41758;51.992;5.890;2022-08-20T10:30:20;26.00;65.70
55828;DHT22;41758;51.992;5.890;2022-08-20T10:32:46;26.00;65.40
55828;DHT22;41758;51.992;5.890;2022-08-20T10:35:12;26.00;65.20
55828;DHT22;41758;51.992;5.890;2022-08-20T10:37:38;26.00;64.90
55828;DHT22;41758;51.992;5.890;2022-08-20T10:40:05;26.00;64.70
55828;DHT22;41758;51.992;5.890;2022-08-20T10:42:30;26.00;64.50
55828;DHT22;41758;51.992;5.890;2022-08-20T10:44:56;26.10;64.60
55828;DHT22;41758;51.992;5.890;2022-08-20T10:47:30;26.30;64.60
55828;DHT22;41758;51.992;5.890;2022-08-20T10:49:58;26.50;64.20
55828;DHT22;41758;51.992;5.890;2022-08-20T10:52:25;26.90;63.80
55828;DHT22;41758;51.992;5.890;2022-08-20T10:54:51;27.30;62.00
55828;DHT22;41758;51.992;5.890;2022-08-20T10:57:25;27.50;60.80
55828;DHT22;41758;51.992;5.890;2022-08-20T10:59:53;27.50;60.20
55828;DHT22;41758;51.992;5.890;2022-08-20T11:02:20;27.60;60.30
55828;DHT22;41758;51.992;5.890;2022-08-20T11:04:46;28.00;58.30
55828;DHT22;41758;51.992;5.890;2022-08-20T11:07:36;28.60;57.20
55828;DHT22;41758;51.992;5.890;2022-08-20T11:10:04;29.20;55.50
55828;DHT22;41758;51.992;5.890;2022-08-20T11:12:29;29.40;55.70
55828;DHT22;41758;51.992;5.890;2022-08-20T11:14:55;29.50;55.50
55828;DHT22;41758;51.992;5.890;2022-08-20T11:17:26;29.80;54.90
55828;DHT22;41758;51.992;5.890;2022-08-20T11:19:53;29.80;54.10
55828;DHT22;41758;51.992;5.890;2022-08-20T11:22:19;29.60;54.30
55828;DHT22;41758;51.992;5.890;2022-08-20T11:24:46;29.40;54.00
55828;DHT22;41758;51.992;5.890;2022-08-20T11:27:20;29.70;52.60
55828;DHT22;41758;51.992;5.890;2022-08-20T11:29:46;30.00;51.20
55828;DHT22;41758;51.992;5.890;2022-08-20T11:32:11;29.90;51.60
55828;DHT22;41758;51.992;5.890;2022-08-20T11:34:37;30.30;51.20
55828;DHT22;41758;51.992;5.890;2022-08-20T11:37:03;30.90;51.70
55828;DHT22;41758;51.992;5.890;2022-08-20T11:39:28;31.40;50.20
55828;DHT22;41758;51.992;5.890;2022-08-20T11:41:54;31.80;46.60
55828;DHT22;41758;51.992;5.890;2022-08-20T11:44:20;31.90;47.00
55828;DHT22;41758;51.992;5.890;2022-08-20T11:46:46;31.90;47.80
55828;DHT22;41758;51.992;5.890;2022-08-20T11:49:11;32.20;46.80
55828;DHT22;41758;51.992;5.890;2022-08-20T11:51:37;32.60;48.40
55828;DHT22;41758;51.992;5.890;2022-08-20T11:54:04;32.90;46.40
55828;DHT22;41758;51.992;5.890;2022-08-20T11:56:29;33.30;46.30
55828;DHT22;41758;51.992;5.890;2022-08-20T11:58:55;33.60;44.90
55828;DHT22;41758;51.992;5.890;2022-08-20T12:01:21;33.90;43.00
55828;DHT22;41758;51.992;5.890;2022-08-20T12:03:46;34.00;40.30
55828;DHT22;41758;51.992;5.890;2022-08-20T12:06:12;33.80;40.90
55828;DHT22;41758;51.992;5.890;2022-08-20T12:08:38;33.30;42.40
55828;DHT22;41758;51.992;5.890;2022-08-20T12:11:04;33.40;41.80
55828;DHT22;41758;51.992;5.890;2022-08-20T12:13:32;33.80;42.40
55828;DHT22;41758;51.992;5.890;2022-08-20T12:15:58;34.10;42.60
55828;DHT22;41758;51.992;5.890;2022-08-20T12:18:24;34.40;42.30
55828;DHT22;41758;51.992;5.890;2022-08-20T12:20:50;34.80;42.00
55828;DHT22;41758;51.992;5.890;2022-08-20T12:23:16;34.90;40.30
55828;DHT22;41758;51.992;5.890;2022-08-20T12:25:42;35.30;41.70
55828;DHT22;41758;51.992;5.890;2022-08-20T12:28:07;35.50;38.60
55828;DHT22;41758;51.992;5.890;2022-08-20T12:30:33;35.60;36.40
55828;DHT22;41758;51.992;5.890;2022-08-20T12:32:59;35.70;35.80
55828;DHT22;41758;51.992;5.890;2022-08-20T12:35:25;35.60;36.00
55828;DHT22;41758;51.992;5.890;2022-08-20T12:37:52;35.10;38.60
55828;DHT22;41758;51.992;5.890;2022-08-20T12:40:22;34.40;38.60
55828;DHT22;41758;51.992;5.890;2022-08-20T12:42:48;33.70;39.60
55828;DHT22;41758;51.992;5.890;2022-08-20T12:45:15;33.00;39.30
55828;DHT22;41758;51.992;5.890;2022-08-20T12:47:43;32.40;40.60
55828;DHT22;41758;51.992;5.890;2022-08-20T12:50:12;32.20;43.60
55828;DHT22;41758;51.992;5.890;2022-08-20T12:52:38;31.90;45.60
55828;DHT22;41758;51.992;5.890;2022-08-20T12:55:06;31.60;46.90
55828;DHT22;41758;51.992;5.890;2022-08-20T12:57:38;31.50;48.40
55828;DHT22;41758;51.992;5.890;2022-08-20T13:00:07;31.80;41.30
55828;DHT22;41758;51.992;5.890;2022-08-20T13:02:34;31.80;44.10
55828;DHT22;41758;51.992;5.890;2022-08-20T13:05:00;31.90;45.10
55828;DHT22;41758;51.992;5.890;2022-08-20T13:07:26;32.00;41.90
55828;DHT22;41758;51.992;5.890;2022-08-20T13:09:51;32.40;41.70
55828;DHT22;41758;51.992;5.890;2022-08-20T13:12:17;32.70;43.20
55828;DHT22;41758;51.992;5.890;2022-08-20T13:14:43;32.70;44.40
55828;DHT22;41758;51.992;5.890;2022-08-20T13:17:09;32.50;43.00
55828;DHT22;41758;51.992;5.890;2022-08-20T13:19:37;32.10;44.70
55828;DHT22;41758;51.992;5.890;2022-08-20T13:22:03;32.00;44.10
55828;DHT22;41758;51.992;5.890;2022-08-20T13:24:29;31.70;45.80
55828;DHT22;41758;51.992;5.890;2022-08-20T13:27:04;31.50;45.50
55828;DHT22;41758;51.992;5.890;2022-08-20T13:29:30;31.20;43.00
55828;DHT22;41758;51.992;5.890;2022-08-20T13:31:55;31.00;45.00
55828;DHT22;41758;51.992;5.890;2022-08-20T13:34:21;30.80;45.30
55828;DHT22;41758;51.992;5.890;2022-08-20T13:36:46;30.60;48.10
55828;DHT22;41758;51.992;5.890;2022-08-20T13:39:12;30.40;45.90
55828;DHT22;41758;51.992;5.890;2022-08-20T13:41:40;30.30;48.50
55828;DHT22;41758;51.992;5.890;2022-08-20T13:44:08;30.20;47.80
55828;DHT22;41758;51.992;5.890;2022-08-20T13:46:34;30.10;48.50
55828;DHT22;41758;51.992;5.890;2022-08-20T13:49:03;30.00;47.90
55828;DHT22;41758;51.992;5.890;2022-08-20T13:51:28;29.90;47.90
55828;DHT22;41758;51.992;5.890;2022-08-20T13:53:54;29.80;49.50
55828;DHT22;41758;51.992;5.890;2022-08-20T13:56:20;29.60;48.70
55828;DHT22;41758;51.992;5.890;2022-08-20T13:58:46;29.60;49.60
55828;DHT22;41758;51.992;5.890;2022-08-20T14:01:12;29.50;50.80
55828;DHT22;41758;51.992;5.890;2022-08-20T14:03:37;29.40;46.10
55828;DHT22;41758;51.992;5.890;2022-08-20T14:06:07;29.40;48.90
55828;DHT22;41758;51.992;5.890;2022-08-20T14:08:42;29.30;48.60
55828;DHT22;41758;51.992;5.890;2022-08-20T14:11:14;29.30;48.10
55828;DHT22;41758;51.992;5.890;2022-08-20T14:13:39;29.20;48.20
55828;DHT22;41758;51.992;5.890;2022-08-20T14:16:08;29.20;49.50
55828;DHT22;41758;51.992;5.890;2022-08-20T14:18:34;29.10;47.80
55828;DHT22;41758;51.992;5.890;2022-08-20T14:20:59;29.10;47.40
55828;DHT22;41758;51.992;5.890;2022-08-20T14:23:25;29.00;46.90
55828;DHT22;41758;51.992;5.890;2022-08-20T14:25:51;29.00;46.70
55828;DHT22;41758;51.992;5.890;2022-08-20T14:28:23;28.90;47.40
55828;DHT22;41758;51.992;5.890;2022-08-20T14:30:49;29.00;49.70
55828;DHT22;41758;51.992;5.890;2022-08-20T14:33:20;29.00;50.90
55828;DHT22;41758;51.992;5.890;2022-08-20T14:35:52;29.00;52.10
55828;DHT22;41758;51.992;5.890;2022-08-20T14:38:23;28.90;50.70
55828;DHT22;41758;51.992;5.890;2022-08-20T14:40:55;28.90;48.10
55828;DHT22;41758;51.992;5.890;2022-08-20T14:43:23;28.90;50.80
55828;DHT22;41758;51.992;5.890;2022-08-20T14:45:48;28.80;49.40
55828;DHT22;41758;51.992;5.890;2022-08-20T14:48:14;28.80;48.90
55828;DHT22;41758;51.992;5.890;2022-08-20T14:50:41;28.70;45.60
55828;DHT22;41758;51.992;5.890;2022-08-20T14:53:09;28.70;46.60
55828;DHT22;41758;51.992;5.890;2022-08-20T14:55:36;28.70;52.10
55828;DHT22;41758;51.992;5.890;2022-08-20T14:58:10;28.70;51.10
55828;DHT22;41758;51.992;5.890;2022-08-20T15:00:37;28.70;49.80
55828;DHT22;41758;51.992;5.890;2022-08-20T15:03:03;28.60;50.40
55828;DHT22;41758;51.992;5.890;2022-08-20T15:05:29;28.60;48.90
55828;DHT22;41758;51.992;5.890;2022-08-20T15:07:55;28.60;46.00
55828;DHT22;41758;51.992;5.890;2022-08-20T15:10:31;28.60;46.30
55828;DHT22;41758;51.992;5.890;2022-08-20T15:13:05;28.50;47.80
55828;DHT22;41758;51.992;5.890;2022-08-20T15:15:31;28.60;50.50
55828;DHT22;41758;51.992;5.890;2022-08-20T15:18:00;28.60;48.90
55828;DHT22;41758;51.992;5.890;2022-08-20T15:20:29;28.60;50.60
55828;DHT22;41758;51.992;5.890;2022-08-20T15:22:55;28.50;50.30
55828;DHT22;41758;51.992;5.890;2022-08-20T15:25:24;28.60;48.00
55828;DHT22;41758;51.992;5.890;2022-08-20T15:27:54;28.50;50.10
55828;DHT22;41758;51.992;5.890;2022-08-20T15:30:24;28.50;48.60
55828;DHT22;41758;51.992;5.890;2022-08-20T15:32:52;28.50;51.70
55828;DHT22;41758;51.992;5.890;2022-08-20T15:35:23;28.60;52.90
55828;DHT22;41758;51.992;5.890;2022-08-20T15:37:50;28.40;45.80
55828;DHT22;41758;51.992;5.890;2022-08-20T15:40:18;28.40;50.10
55828;DHT22;41758;51.992;5.890;2022-08-20T15:42:47;28.40;50.90
55828;DHT22;41758;51.992;5.890;2022-08-20T15:45:16;28.30;48.50
55828;DHT22;41758;51.992;5.890;2022-08-20T15:47:52;28.30;51.50